SHU5472 UHWW-ZYHB
Flight info
| Callsign | SHU5472 |
|---|---|
| Flight time | 1h 15m |
| Altitude | 38100 |
| Route | SANAR2P SANAR B451 KETOV KET08A |
| Aircraft | A319/M-SDE3FGHIRWY/LB1 |
Departure
| Time | 2026-04-23 13:49 |
|---|---|
| Airport | Vladivostok International Airport (UHWW) |
Arrival
| Time | 2026-04-23 15:04 |
|---|---|
| Airport | Harbin Taiping International Airport (ZYHB) |
| Time | Latitude | Longitude | Altitude | Speed | Heading |
|---|---|---|---|---|---|
| 2026-04-23 13:39 | 43.39715 | 132.16492 | 50 ft | 0 kts | 151° |
| 2026-04-23 13:40 | 43.39725 | 132.16484 | 50 ft | 2 kts | 150° |
| 2026-04-23 13:41 | 43.39738 | 132.16473 | 50 ft | 2 kts | 151° |
| 2026-04-23 13:41 | 43.39751 | 132.16464 | 49 ft | 2 kts | 150° |
| 2026-04-23 13:41 | 43.39764 | 132.16454 | 49 ft | 2 kts | 160° |
| 2026-04-23 13:41 | 43.39779 | 132.16449 | 48 ft | 2 kts | 175° |
| 2026-04-23 13:42 | 43.39794 | 132.16450 | 48 ft | 2 kts | 191° |
| 2026-04-23 13:42 | 43.39809 | 132.16457 | 47 ft | 2 kts | 206° |
| 2026-04-23 13:42 | 43.39822 | 132.16467 | 46 ft | 2 kts | 221° |
| 2026-04-23 13:42 | 43.39832 | 132.16483 | 45 ft | 2 kts | 236° |
| 2026-04-23 13:43 | 43.39835 | 132.16490 | 45 ft | 1 kts | 243° |
| 2026-04-23 13:43 | 43.39836 | 132.16493 | 45 ft | 0 kts | 241° |
| 2026-04-23 13:43 | 43.39836 | 132.16492 | 45 ft | 1 kts | 242° |
| 2026-04-23 13:44 | 43.39825 | 132.16466 | 46 ft | 3 kts | 240° |
| 2026-04-23 13:44 | 43.39814 | 132.16440 | 47 ft | 4 kts | 240° |
| 2026-04-23 13:44 | 43.39799 | 132.16402 | 48 ft | 4 kts | 240° |
| 2026-04-23 13:44 | 43.39782 | 132.16360 | 50 ft | 7 kts | 241° |
| 2026-04-23 13:45 | 43.39762 | 132.16309 | 52 ft | 9 kts | 241° |
| 2026-04-23 13:45 | 43.39773 | 132.16199 | 54 ft | 12 kts | 324° |
| 2026-04-23 13:45 | 43.39860 | 132.16132 | 51 ft | 16 kts | 331° |
| 2026-04-23 13:45 | 43.39872 | 132.16002 | 51 ft | 16 kts | 242° |
| 2026-04-23 13:46 | 43.39811 | 132.15852 | 56 ft | 18 kts | 241° |
| 2026-04-23 13:46 | 43.39744 | 132.15683 | 57 ft | 21 kts | 242° |
| 2026-04-23 13:46 | 43.39667 | 132.15491 | 59 ft | 24 kts | 240° |
| 2026-04-23 13:46 | 43.39577 | 132.15269 | 56 ft | 28 kts | 240° |
| 2026-04-23 13:47 | 43.39474 | 132.15016 | 54 ft | 31 kts | 241° |
| 2026-04-23 13:47 | 43.39365 | 132.14746 | 50 ft | 32 kts | 241° |
| 2026-04-23 13:47 | 43.39254 | 132.14471 | 48 ft | 32 kts | 241° |
| 2026-04-23 13:47 | 43.39206 | 132.14298 | 43 ft | 16 kts | 292° |
| 2026-04-23 13:48 | 43.39298 | 132.14214 | 38 ft | 17 kts | 332° |
| 2026-04-23 13:48 | 43.39403 | 132.14249 | 37 ft | 18 kts | 57° |
| 2026-04-23 13:48 | 43.39573 | 132.14659 | 43 ft | 86 kts | 60° |
| 2026-04-23 13:48 | 43.39978 | 132.15659 | 50 ft | 148 kts | 60° |
| 2026-04-23 13:49 | 43.40522 | 132.16988 | 486 ft | 165 kts | 58° |
| 2026-04-23 13:49 | 43.41059 | 132.18347 | 1360 ft | 162 kts | 57° |
| 2026-04-23 13:49 | 43.41581 | 132.19670 | 2175 ft | 163 kts | 56° |
| 2026-04-23 13:49 | 43.42163 | 132.21107 | 2703 ft | 179 kts | 56° |
| 2026-04-23 13:50 | 43.42798 | 132.22670 | 3171 ft | 200 kts | 56° |
| 2026-04-23 13:50 | 43.43487 | 132.24376 | 3886 ft | 210 kts | 56° |
| 2026-04-23 13:50 | 43.44191 | 132.26134 | 4731 ft | 215 kts | 56° |
| 2026-04-23 13:50 | 43.44924 | 132.27960 | 5529 ft | 222 kts | 55° |
| 2026-04-23 13:51 | 43.45671 | 132.29820 | 6335 ft | 228 kts | 55° |
| 2026-04-23 13:51 | 43.46446 | 132.31749 | 7149 ft | 235 kts | 54° |
| 2026-04-23 13:51 | 43.47232 | 132.33708 | 7940 ft | 241 kts | 54° |
| 2026-04-23 13:51 | 43.48169 | 132.35584 | 8718 ft | 236 kts | 32° |
| 2026-04-23 13:52 | 43.49569 | 132.36500 | 9547 ft | 221 kts | 359° |
| 2026-04-23 13:52 | 43.51025 | 132.36293 | 10378 ft | 211 kts | 332° |
| 2026-04-23 13:52 | 43.52305 | 132.35361 | 11227 ft | 211 kts | 327° |
| 2026-04-23 13:52 | 43.53574 | 132.34383 | 12058 ft | 213 kts | 327° |
| 2026-04-23 13:53 | 43.54853 | 132.33406 | 12921 ft | 213 kts | 328° |
| 2026-04-23 13:53 | 43.56092 | 132.32330 | 13746 ft | 212 kts | 315° |
| 2026-04-23 13:53 | 43.56905 | 132.30676 | 14544 ft | 215 kts | 294° |
| 2026-04-23 13:53 | 43.57130 | 132.28618 | 15309 ft | 227 kts | 273° |
| 2026-04-23 13:54 | 43.56664 | 132.26495 | 16063 ft | 243 kts | 255° |
| 2026-04-23 13:54 | 43.55912 | 132.24414 | 16742 ft | 246 kts | 256° |
| 2026-04-23 13:54 | 43.55147 | 132.22310 | 17407 ft | 249 kts | 256° |
| 2026-04-23 13:54 | 43.54364 | 132.20183 | 18073 ft | 251 kts | 256° |
| 2026-04-23 13:55 | 43.53560 | 132.18051 | 18728 ft | 256 kts | 254° |
| 2026-04-23 13:55 | 43.52636 | 132.15852 | 19093 ft | 271 kts | 252° |
| 2026-04-23 13:55 | 43.51643 | 132.13536 | 19375 ft | 287 kts | 252° |
| 2026-04-23 13:55 | 43.50609 | 132.11137 | 19653 ft | 303 kts | 251° |
| 2026-04-23 13:56 | 43.49494 | 132.08568 | 19938 ft | 318 kts | 251° |
| 2026-04-23 13:56 | 43.48333 | 132.05902 | 20201 ft | 332 kts | 250° |
| 2026-04-23 13:56 | 43.47117 | 132.03113 | 20462 ft | 347 kts | 250° |
| 2026-04-23 13:56 | 43.45866 | 132.00249 | 20702 ft | 359 kts | 249° |
| 2026-04-23 13:57 | 43.44558 | 131.97267 | 21073 ft | 368 kts | 249° |
| 2026-04-23 13:57 | 43.43210 | 131.94209 | 21586 ft | 372 kts | 249° |
| 2026-04-23 13:57 | 43.41859 | 131.91145 | 22080 ft | 376 kts | 249° |
| 2026-04-23 13:57 | 43.40495 | 131.88046 | 22586 ft | 378 kts | 249° |
| 2026-04-23 13:58 | 43.39132 | 131.84946 | 23120 ft | 380 kts | 249° |
| 2026-04-23 13:58 | 43.37765 | 131.81841 | 23619 ft | 382 kts | 249° |
| 2026-04-23 13:58 | 43.36378 | 131.78694 | 24075 ft | 385 kts | 249° |
| 2026-04-23 13:58 | 43.35004 | 131.75575 | 24537 ft | 387 kts | 249° |
| 2026-04-23 13:59 | 43.33585 | 131.72354 | 24965 ft | 390 kts | 249° |
| 2026-04-23 13:59 | 43.32172 | 131.69150 | 25389 ft | 392 kts | 249° |
| 2026-04-23 13:59 | 43.30752 | 131.65938 | 25783 ft | 395 kts | 248° |
| 2026-04-23 13:59 | 43.29315 | 131.62689 | 26210 ft | 397 kts | 248° |
| 2026-04-23 14:00 | 43.28358 | 131.60529 | 26486 ft | 399 kts | 248° |
| 2026-04-23 14:00 | 43.26428 | 131.56175 | 27047 ft | 401 kts | 248° |
| 2026-04-23 14:00 | 43.24975 | 131.52908 | 27460 ft | 402 kts | 248° |
| 2026-04-23 14:00 | 43.23545 | 131.49594 | 27831 ft | 400 kts | 252° |
| 2026-04-23 14:01 | 43.22537 | 131.46141 | 28178 ft | 391 kts | 262° |
| 2026-04-23 14:01 | 43.22027 | 131.42500 | 28554 ft | 383 kts | 271° |
| 2026-04-23 14:01 | 43.22014 | 131.38882 | 28929 ft | 378 kts | 279° |
| 2026-04-23 14:01 | 43.22246 | 131.35245 | 29254 ft | 380 kts | 280° |
| 2026-04-23 14:02 | 43.22497 | 131.31627 | 29594 ft | 382 kts | 279° |
| 2026-04-23 14:02 | 43.22748 | 131.28047 | 29993 ft | 382 kts | 280° |
| 2026-04-23 14:02 | 43.23002 | 131.24405 | 30445 ft | 381 kts | 280° |
| 2026-04-23 14:02 | 43.23252 | 131.20844 | 30866 ft | 380 kts | 280° |
| 2026-04-23 14:03 | 43.23479 | 131.17219 | 31255 ft | 380 kts | 279° |
| 2026-04-23 14:03 | 43.23656 | 131.13635 | 31573 ft | 382 kts | 278° |
| 2026-04-23 14:03 | 43.23829 | 131.09973 | 31895 ft | 383 kts | 278° |
| 2026-04-23 14:03 | 43.23999 | 131.06389 | 32245 ft | 382 kts | 278° |
| 2026-04-23 14:04 | 43.24170 | 131.02750 | 32594 ft | 382 kts | 278° |
| 2026-04-23 14:04 | 43.24337 | 130.99141 | 32882 ft | 383 kts | 278° |
| 2026-04-23 14:04 | 43.24507 | 130.95471 | 33125 ft | 384 kts | 278° |
| 2026-04-23 14:04 | 43.24674 | 130.91823 | 33394 ft | 384 kts | 278° |
| 2026-04-23 14:05 | 43.24844 | 130.88176 | 33651 ft | 385 kts | 277° |
| 2026-04-23 14:05 | 43.25010 | 130.84523 | 33862 ft | 386 kts | 277° |
| 2026-04-23 14:05 | 43.25175 | 130.80865 | 34102 ft | 386 kts | 278° |
| 2026-04-23 14:05 | 43.25340 | 130.77211 | 34349 ft | 386 kts | 277° |
| 2026-04-23 14:06 | 43.25501 | 130.73578 | 34616 ft | 385 kts | 277° |
| 2026-04-23 14:06 | 43.25665 | 130.69890 | 34874 ft | 386 kts | 277° |
| 2026-04-23 14:06 | 43.25828 | 130.66252 | 35124 ft | 385 kts | 277° |
| 2026-04-23 14:06 | 43.25987 | 130.62575 | 35385 ft | 385 kts | 277° |
| 2026-04-23 14:07 | 43.26147 | 130.58929 | 35631 ft | 384 kts | 277° |
| 2026-04-23 14:07 | 43.26460 | 130.51675 | 36121 ft | 382 kts | 276° |
| 2026-04-23 14:07 | 43.26616 | 130.48013 | 36347 ft | 381 kts | 276° |
| 2026-04-23 14:08 | 43.26768 | 130.44371 | 36520 ft | 381 kts | 276° |
| 2026-04-23 14:08 | 43.26919 | 130.40712 | 36663 ft | 383 kts | 276° |
| 2026-04-23 14:08 | 43.27072 | 130.37042 | 36787 ft | 384 kts | 276° |
| 2026-04-23 14:08 | 43.27224 | 130.33368 | 36900 ft | 386 kts | 275° |
| 2026-04-23 14:09 | 43.27374 | 130.29668 | 37047 ft | 387 kts | 275° |
| 2026-04-23 14:09 | 43.27525 | 130.25929 | 37200 ft | 387 kts | 275° |
| 2026-04-23 14:09 | 43.27673 | 130.22267 | 37318 ft | 388 kts | 275° |
| 2026-04-23 14:09 | 43.27820 | 130.18495 | 37441 ft | 390 kts | 275° |
| 2026-04-23 14:10 | 43.28111 | 130.11040 | 37635 ft | 392 kts | 275° |
| 2026-04-23 14:10 | 43.28256 | 130.07314 | 37757 ft | 393 kts | 275° |
| 2026-04-23 14:10 | 43.28401 | 130.03554 | 37891 ft | 393 kts | 275° |
| 2026-04-23 14:11 | 43.28686 | 129.96034 | 37997 ft | 395 kts | 274° |
| 2026-04-23 14:11 | 43.29117 | 129.88521 | 38004 ft | 394 kts | 280° |
| 2026-04-23 14:12 | 43.30516 | 129.81227 | 38010 ft | 394 kts | 290° |
| 2026-04-23 14:12 | 43.32948 | 129.74419 | 38016 ft | 396 kts | 300° |
| 2026-04-23 14:13 | 43.36304 | 129.68404 | 38023 ft | 399 kts | 309° |
| 2026-04-23 14:13 | 43.40077 | 129.62790 | 38018 ft | 400 kts | 310° |
| 2026-04-23 14:14 | 43.43874 | 129.57188 | 38028 ft | 400 kts | 310° |
| 2026-04-23 14:14 | 43.47661 | 129.51604 | 38016 ft | 401 kts | 310° |
| 2026-04-23 14:15 | 43.51442 | 129.46016 | 38016 ft | 400 kts | 310° |
| 2026-04-23 14:15 | 43.55231 | 129.40405 | 38003 ft | 400 kts | 310° |
| 2026-04-23 14:16 | 43.59014 | 129.34788 | 37982 ft | 400 kts | 310° |
| 2026-04-23 14:16 | 43.62800 | 129.29140 | 38003 ft | 400 kts | 310° |
| 2026-04-23 14:17 | 43.66545 | 129.23544 | 37990 ft | 400 kts | 310° |
| 2026-04-23 14:17 | 43.70337 | 129.17879 | 37993 ft | 400 kts | 310° |
| 2026-04-23 14:18 | 43.74103 | 129.12242 | 37999 ft | 400 kts | 310° |
| 2026-04-23 14:18 | 43.77948 | 129.06576 | 38010 ft | 400 kts | 311° |
| 2026-04-23 14:19 | 43.81770 | 129.00960 | 38034 ft | 402 kts | 311° |
| 2026-04-23 14:19 | 43.85592 | 128.95326 | 38045 ft | 402 kts | 310° |
| 2026-04-23 14:20 | 43.89416 | 128.89671 | 38030 ft | 401 kts | 311° |
| 2026-04-23 14:20 | 43.93225 | 128.84027 | 38034 ft | 401 kts | 311° |
| 2026-04-23 14:21 | 43.97034 | 128.78368 | 38040 ft | 400 kts | 311° |
| 2026-04-23 14:21 | 44.00825 | 128.72729 | 38024 ft | 400 kts | 311° |
| 2026-04-23 14:22 | 44.04619 | 128.67072 | 38036 ft | 401 kts | 311° |
| 2026-04-23 14:22 | 44.08421 | 128.61386 | 38027 ft | 400 kts | 311° |
| 2026-04-23 14:23 | 44.12233 | 128.55693 | 38032 ft | 401 kts | 311° |
| 2026-04-23 14:23 | 44.16052 | 128.50050 | 38012 ft | 400 kts | 311° |
| 2026-04-23 14:24 | 44.19838 | 128.44444 | 38017 ft | 400 kts | 311° |
| 2026-04-23 14:24 | 44.23641 | 128.38788 | 38010 ft | 400 kts | 311° |
| 2026-04-23 14:25 | 44.27425 | 128.33131 | 37997 ft | 399 kts | 311° |
| 2026-04-23 14:25 | 44.31193 | 128.27469 | 37892 ft | 399 kts | 311° |
| 2026-04-23 14:26 | 44.34967 | 128.21793 | 37952 ft | 400 kts | 311° |
| 2026-04-23 14:26 | 44.38753 | 128.16093 | 37975 ft | 401 kts | 311° |
| 2026-04-23 14:27 | 44.42509 | 128.10429 | 37987 ft | 400 kts | 311° |
| 2026-04-23 14:27 | 44.46326 | 128.04672 | 37987 ft | 400 kts | 311° |
| 2026-04-23 14:28 | 44.50117 | 127.98935 | 37990 ft | 400 kts | 311° |
| 2026-04-23 14:28 | 44.53893 | 127.93213 | 37992 ft | 399 kts | 311° |
| 2026-04-23 14:29 | 44.57662 | 127.87485 | 37990 ft | 399 kts | 311° |
| 2026-04-23 14:29 | 44.61440 | 127.81739 | 37996 ft | 399 kts | 311° |
| 2026-04-23 14:30 | 44.65205 | 127.75993 | 37799 ft | 397 kts | 311° |
| 2026-04-23 14:30 | 44.67054 | 127.73165 | 37220 ft | 397 kts | 311° |
| 2026-04-23 14:30 | 44.68910 | 127.70324 | 36507 ft | 399 kts | 311° |
| 2026-04-23 14:31 | 44.70782 | 127.67453 | 36053 ft | 398 kts | 312° |
| 2026-04-23 14:31 | 44.72629 | 127.64624 | 35653 ft | 395 kts | 311° |
| 2026-04-23 14:31 | 44.74480 | 127.61784 | 35245 ft | 392 kts | 312° |
| 2026-04-23 14:31 | 44.76307 | 127.58980 | 34658 ft | 389 kts | 312° |
| 2026-04-23 14:32 | 44.78122 | 127.56190 | 33894 ft | 390 kts | 312° |
| 2026-04-23 14:32 | 44.79972 | 127.53345 | 32946 ft | 394 kts | 312° |
| 2026-04-23 14:32 | 44.81829 | 127.50485 | 31905 ft | 400 kts | 312° |
| 2026-04-23 14:32 | 44.83692 | 127.47609 | 30812 ft | 407 kts | 313° |
| 2026-04-23 14:33 | 44.85606 | 127.44655 | 29669 ft | 412 kts | 313° |
| 2026-04-23 14:33 | 44.87544 | 127.41663 | 28792 ft | 412 kts | 313° |
| 2026-04-23 14:33 | 44.89460 | 127.38698 | 28017 ft | 409 kts | 313° |
| 2026-04-23 14:33 | 44.91327 | 127.35807 | 27514 ft | 401 kts | 313° |
| 2026-04-23 14:34 | 44.93182 | 127.32927 | 26977 ft | 395 kts | 312° |
| 2026-04-23 14:34 | 44.95007 | 127.30077 | 26433 ft | 389 kts | 312° |
| 2026-04-23 14:34 | 44.96810 | 127.27264 | 25898 ft | 385 kts | 312° |
| 2026-04-23 14:34 | 44.98595 | 127.24485 | 25371 ft | 378 kts | 312° |
| 2026-04-23 14:35 | 45.00334 | 127.21774 | 24862 ft | 373 kts | 312° |
| 2026-04-23 14:35 | 45.02046 | 127.19108 | 24352 ft | 368 kts | 312° |
| 2026-04-23 14:35 | 45.03767 | 127.16449 | 23858 ft | 362 kts | 313° |
| 2026-04-23 14:35 | 45.05471 | 127.13877 | 23374 ft | 357 kts | 313° |
| 2026-04-23 14:36 | 45.07150 | 127.11357 | 22898 ft | 353 kts | 313° |
| 2026-04-23 14:36 | 45.08826 | 127.08839 | 22419 ft | 348 kts | 313° |
| 2026-04-23 14:36 | 45.10471 | 127.06363 | 21954 ft | 344 kts | 313° |
| 2026-04-23 14:36 | 45.12079 | 127.03951 | 21488 ft | 341 kts | 313° |
| 2026-04-23 14:37 | 45.13705 | 127.01511 | 21019 ft | 338 kts | 313° |
| 2026-04-23 14:37 | 45.15295 | 126.99116 | 20570 ft | 334 kts | 313° |
| 2026-04-23 14:37 | 45.16867 | 126.96742 | 20118 ft | 331 kts | 313° |
| 2026-04-23 14:37 | 45.18430 | 126.94376 | 19663 ft | 329 kts | 313° |
| 2026-04-23 14:38 | 45.19982 | 126.92021 | 19210 ft | 326 kts | 313° |
| 2026-04-23 14:38 | 45.21527 | 126.89675 | 18759 ft | 324 kts | 312° |
| 2026-04-23 14:38 | 45.23043 | 126.87373 | 18321 ft | 321 kts | 312° |
| 2026-04-23 14:38 | 45.24561 | 126.85062 | 17882 ft | 319 kts | 312° |
| 2026-04-23 14:39 | 45.26070 | 126.82762 | 17451 ft | 316 kts | 312° |
| 2026-04-23 14:39 | 45.27542 | 126.80514 | 17024 ft | 314 kts | 312° |
| 2026-04-23 14:39 | 45.29035 | 126.78237 | 16579 ft | 313 kts | 312° |
| 2026-04-23 14:39 | 45.30500 | 126.76000 | 16147 ft | 311 kts | 312° |
| 2026-04-23 14:40 | 45.31974 | 126.73747 | 15715 ft | 309 kts | 312° |
| 2026-04-23 14:40 | 45.33420 | 126.71532 | 15280 ft | 308 kts | 312° |
| 2026-04-23 14:40 | 45.34874 | 126.69304 | 14847 ft | 307 kts | 312° |
| 2026-04-23 14:40 | 45.36316 | 126.67093 | 14415 ft | 305 kts | 312° |
| 2026-04-23 14:41 | 45.37745 | 126.64899 | 13994 ft | 304 kts | 312° |
| 2026-04-23 14:41 | 45.39184 | 126.62687 | 13573 ft | 302 kts | 312° |
| 2026-04-23 14:41 | 45.40583 | 126.60533 | 13159 ft | 300 kts | 312° |
| 2026-04-23 14:41 | 45.41994 | 126.58362 | 12747 ft | 298 kts | 312° |
| 2026-04-23 14:42 | 45.43411 | 126.56182 | 12323 ft | 296 kts | 312° |
| 2026-04-23 14:42 | 45.44796 | 126.54050 | 11914 ft | 294 kts | 312° |
| 2026-04-23 14:42 | 45.46159 | 126.51946 | 11699 ft | 285 kts | 312° |
| 2026-04-23 14:42 | 45.47461 | 126.49925 | 11709 ft | 268 kts | 312° |
| 2026-04-23 14:43 | 45.48671 | 126.48041 | 11722 ft | 252 kts | 312° |
| 2026-04-23 14:43 | 45.49824 | 126.46244 | 11732 ft | 237 kts | 311° |
| 2026-04-23 14:43 | 45.50899 | 126.44567 | 11753 ft | 227 kts | 311° |
| 2026-04-23 14:43 | 45.51969 | 126.42896 | 11780 ft | 226 kts | 311° |
| 2026-04-23 14:44 | 45.53029 | 126.41239 | 11790 ft | 226 kts | 311° |
| 2026-04-23 14:44 | 45.54062 | 126.39590 | 11788 ft | 226 kts | 306° |
| 2026-04-23 14:44 | 45.54715 | 126.37580 | 11792 ft | 225 kts | 281° |
| 2026-04-23 14:44 | 45.54697 | 126.35345 | 11796 ft | 227 kts | 258° |
| 2026-04-23 14:45 | 45.54022 | 126.33307 | 11798 ft | 232 kts | 233° |
| 2026-04-23 14:45 | 45.52850 | 126.31709 | 11807 ft | 236 kts | 223° |
| 2026-04-23 14:45 | 45.51570 | 126.30226 | 11803 ft | 237 kts | 222° |
| 2026-04-23 14:45 | 45.50304 | 126.28775 | 11797 ft | 237 kts | 222° |
| 2026-04-23 14:46 | 45.49017 | 126.27289 | 11793 ft | 236 kts | 222° |
| 2026-04-23 14:46 | 45.47747 | 126.25812 | 11796 ft | 236 kts | 222° |
| 2026-04-23 14:46 | 45.46463 | 126.24316 | 11800 ft | 236 kts | 222° |
| 2026-04-23 14:46 | 45.45197 | 126.22839 | 11804 ft | 236 kts | 222° |
| 2026-04-23 14:47 | 45.43939 | 126.21371 | 11800 ft | 235 kts | 222° |
| 2026-04-23 14:47 | 45.42671 | 126.19892 | 11803 ft | 235 kts | 222° |
| 2026-04-23 14:47 | 45.41398 | 126.18409 | 11799 ft | 235 kts | 222° |
| 2026-04-23 14:47 | 45.40136 | 126.16936 | 11790 ft | 235 kts | 222° |
| 2026-04-23 14:48 | 45.38883 | 126.15479 | 11786 ft | 234 kts | 222° |
| 2026-04-23 14:48 | 45.37623 | 126.14010 | 11786 ft | 234 kts | 222° |
| 2026-04-23 14:48 | 45.36356 | 126.12537 | 11787 ft | 235 kts | 222° |
| 2026-04-23 14:48 | 45.35091 | 126.11066 | 11788 ft | 235 kts | 223° |
| 2026-04-23 14:49 | 45.33823 | 126.09594 | 11797 ft | 235 kts | 222° |
| 2026-04-23 14:49 | 45.32563 | 126.08131 | 11793 ft | 236 kts | 223° |
| 2026-04-23 14:49 | 45.31287 | 126.06651 | 11782 ft | 236 kts | 222° |
| 2026-04-23 14:49 | 45.30020 | 126.05183 | 11781 ft | 235 kts | 223° |
| 2026-04-23 14:50 | 45.28757 | 126.03717 | 11774 ft | 236 kts | 223° |
| 2026-04-23 14:50 | 45.27487 | 126.02244 | 11745 ft | 236 kts | 222° |
| 2026-04-23 14:50 | 45.26212 | 126.00767 | 11452 ft | 236 kts | 222° |
| 2026-04-23 14:50 | 45.24932 | 125.99287 | 11178 ft | 234 kts | 222° |
| 2026-04-23 14:51 | 45.23677 | 125.97837 | 10913 ft | 231 kts | 222° |
| 2026-04-23 14:51 | 45.22438 | 125.96407 | 10667 ft | 231 kts | 223° |
| 2026-04-23 14:51 | 45.21195 | 125.94971 | 10416 ft | 230 kts | 223° |
| 2026-04-23 14:51 | 45.19960 | 125.93544 | 10164 ft | 229 kts | 223° |
| 2026-04-23 14:52 | 45.18720 | 125.92114 | 9911 ft | 229 kts | 223° |
| 2026-04-23 14:52 | 45.17491 | 125.90697 | 9672 ft | 228 kts | 223° |
| 2026-04-23 14:52 | 45.16289 | 125.89259 | 9408 ft | 226 kts | 230° |
| 2026-04-23 14:52 | 45.15511 | 125.87399 | 9126 ft | 220 kts | 257° |
| 2026-04-23 14:53 | 45.15418 | 125.85276 | 8862 ft | 215 kts | 281° |
| 2026-04-23 14:53 | 45.15973 | 125.83325 | 8602 ft | 216 kts | 304° |
| 2026-04-23 14:53 | 45.16898 | 125.81662 | 8360 ft | 217 kts | 308° |
| 2026-04-23 14:53 | 45.17872 | 125.80039 | 8107 ft | 218 kts | 314° |
| 2026-04-23 14:54 | 45.19159 | 125.78899 | 7820 ft | 221 kts | 341° |
| 2026-04-23 14:54 | 45.20685 | 125.78724 | 7558 ft | 224 kts | 8° |
| 2026-04-23 14:54 | 45.22121 | 125.79546 | 7296 ft | 229 kts | 33° |
| 2026-04-23 14:54 | 45.23377 | 125.80944 | 7058 ft | 230 kts | 38° |
| 2026-04-23 14:55 | 45.24599 | 125.82400 | 6893 ft | 229 kts | 38° |
| 2026-04-23 14:55 | 45.25835 | 125.83868 | 6883 ft | 231 kts | 38° |
| 2026-04-23 14:55 | 45.27072 | 125.85319 | 6818 ft | 233 kts | 38° |
| 2026-04-23 14:55 | 45.28328 | 125.86776 | 6477 ft | 235 kts | 37° |
| 2026-04-23 14:56 | 45.29591 | 125.88235 | 6187 ft | 235 kts | 38° |
| 2026-04-23 14:56 | 45.30871 | 125.89709 | 5914 ft | 234 kts | 38° |
| 2026-04-23 14:56 | 45.32131 | 125.91162 | 5652 ft | 232 kts | 39° |
| 2026-04-23 14:56 | 45.33371 | 125.92577 | 5404 ft | 230 kts | 38° |
| 2026-04-23 14:57 | 45.34633 | 125.93948 | 5183 ft | 227 kts | 38° |
| 2026-04-23 14:57 | 45.35871 | 125.95308 | 4979 ft | 222 kts | 39° |
| 2026-04-23 14:57 | 45.37067 | 125.96654 | 4786 ft | 218 kts | 40° |
| 2026-04-23 14:57 | 45.38238 | 125.98000 | 4597 ft | 214 kts | 40° |
| 2026-04-23 14:58 | 45.39393 | 125.99345 | 4412 ft | 214 kts | 41° |
| 2026-04-23 14:58 | 45.40523 | 126.00675 | 4228 ft | 210 kts | 41° |
| 2026-04-23 14:58 | 45.41633 | 126.01983 | 4042 ft | 205 kts | 42° |
| 2026-04-23 14:58 | 45.42725 | 126.03271 | 3899 ft | 197 kts | 42° |
| 2026-04-23 14:59 | 45.43750 | 126.04479 | 3660 ft | 192 kts | 43° |
| 2026-04-23 14:59 | 45.44774 | 126.05687 | 3331 ft | 191 kts | 43° |
| 2026-04-23 14:59 | 45.45771 | 126.06858 | 3175 ft | 179 kts | 44° |
| 2026-04-23 14:59 | 45.46684 | 126.07926 | 3173 ft | 159 kts | 44° |
| 2026-04-23 15:00 | 45.47483 | 126.08861 | 3129 ft | 141 kts | 44° |
| 2026-04-23 15:00 | 45.48214 | 126.09716 | 2934 ft | 130 kts | 46° |
| 2026-04-23 15:00 | 45.48909 | 126.10537 | 2765 ft | 129 kts | 46° |
| 2026-04-23 15:00 | 45.49606 | 126.11359 | 2596 ft | 129 kts | 46° |
| 2026-04-23 15:01 | 45.50287 | 126.12161 | 2428 ft | 128 kts | 46° |
| 2026-04-23 15:01 | 45.50982 | 126.12974 | 2257 ft | 128 kts | 46° |
| 2026-04-23 15:01 | 45.51664 | 126.13773 | 2084 ft | 127 kts | 47° |
| 2026-04-23 15:01 | 45.52347 | 126.14571 | 1918 ft | 127 kts | 47° |
| 2026-04-23 15:02 | 45.52793 | 126.15094 | 1801 ft | 126 kts | 47° |
| 2026-04-23 15:02 | 45.53697 | 126.16152 | 1572 ft | 126 kts | 46° |
| 2026-04-23 15:02 | 45.54380 | 126.16953 | 1398 ft | 126 kts | 45° |
| 2026-04-23 15:02 | 45.55054 | 126.17744 | 1226 ft | 126 kts | 45° |
| 2026-04-23 15:03 | 45.55730 | 126.18537 | 1055 ft | 126 kts | 43° |
| 2026-04-23 15:03 | 45.56406 | 126.19322 | 868 ft | 125 kts | 42° |
| 2026-04-23 15:03 | 45.57077 | 126.20113 | 705 ft | 124 kts | 42° |
| 2026-04-23 15:03 | 45.57744 | 126.20892 | 545 ft | 123 kts | 41° |
| 2026-04-23 15:04 | 45.58387 | 126.21657 | 512 ft | 111 kts | 37° |
| 2026-04-23 15:04 | 45.58857 | 126.22199 | 511 ft | 61 kts | 40° |
| 2026-04-23 15:04 | 45.59058 | 126.22433 | 511 ft | 16 kts | 40° |
| 2026-04-23 15:04 | 45.59150 | 126.22540 | 511 ft | 17 kts | 37° |
| 2026-04-23 15:05 | 45.59257 | 126.22620 | 511 ft | 17 kts | 19° |
| 2026-04-23 15:05 | 45.59382 | 126.22668 | 511 ft | 19 kts | 14° |
| 2026-04-23 15:05 | 45.59517 | 126.22716 | 511 ft | 20 kts | 14° |
| 2026-04-23 15:05 | 45.59634 | 126.22821 | 511 ft | 20 kts | 39° |
| 2026-04-23 15:06 | 45.59743 | 126.22948 | 511 ft | 20 kts | 39° |
| 2026-04-23 15:06 | 45.59845 | 126.23069 | 511 ft | 18 kts | 37° |
| 2026-04-23 15:06 | 45.59931 | 126.23012 | 511 ft | 15 kts | 308° |
| 2026-04-23 15:06 | 45.60003 | 126.22887 | 511 ft | 16 kts | 309° |
| 2026-04-23 15:07 | 45.60082 | 126.22749 | 511 ft | 19 kts | 309° |
| 2026-04-23 15:07 | 45.60171 | 126.22593 | 511 ft | 20 kts | 309° |
| 2026-04-23 15:07 | 45.60268 | 126.22424 | 511 ft | 22 kts | 309° |
| 2026-04-23 15:07 | 45.60370 | 126.22283 | 511 ft | 18 kts | 359° |
| 2026-04-23 15:08 | 45.60485 | 126.22398 | 511 ft | 25 kts | 39° |
| 2026-04-23 15:08 | 45.60626 | 126.22563 | 511 ft | 26 kts | 39° |
| 2026-04-23 15:08 | 45.60765 | 126.22726 | 511 ft | 25 kts | 39° |
| 2026-04-23 15:09 | 45.61028 | 126.23035 | 511 ft | 14 kts | 36° |
| 2026-04-23 15:09 | 45.61116 | 126.23022 | 511 ft | 13 kts | 17° |
| 2026-04-23 15:09 | 45.61197 | 126.23106 | 511 ft | 15 kts | 37° |
| 2026-04-23 15:09 | 45.61289 | 126.23207 | 511 ft | 17 kts | 40° |
| 2026-04-23 15:10 | 45.61355 | 126.23285 | 511 ft | 19 kts | 39° |
| 2026-04-23 15:10 | 45.61501 | 126.23457 | 511 ft | 20 kts | 39° |
| 2026-04-23 15:10 | 45.61612 | 126.23587 | 511 ft | 20 kts | 39° |
| 2026-04-23 15:10 | 45.61720 | 126.23726 | 511 ft | 20 kts | 44° |
| 2026-04-23 15:11 | 45.61832 | 126.23859 | 511 ft | 20 kts | 39° |
| 2026-04-23 15:11 | 45.61923 | 126.23940 | 511 ft | 11 kts | 346° |
| 2026-04-23 15:11 | 45.61983 | 126.23856 | 511 ft | 12 kts | 305° |
| 2026-04-23 15:11 | 45.61969 | 126.23754 | 511 ft | 5 kts | 245° |
| 2026-04-23 15:12 | 45.61968 | 126.23748 | 511 ft | 0 kts | 245° |